Wheatland, Indiana
Current Conditions -  °F | °C
As of 5:15 AM on Wednesday 26 Nov 2014 (Local Time) from KDCY Reporting Station
Overcast Overcast  
Wind Chill: 29°   Ceiling: 1400
Heat Index: 29°   Visibility: 10mi
Dew Point: 25°   Wind: 3mph
Humidity: 85%   Direction: 100°E
Pressure: 30.14"   Gusts: NA
Location:  38.66°N, 87.31°W
Report Text: KDCY 261115Z AUTO 10003KT 10SM OVC014 M02/M04 A3014 RMK AO2 T10181040
Loading
Personal Weather Stations






























Interactive Weather Map New forecast layout! Learn more

10-Day Weather Forecast

Advertisements
Track Severe Weather on mobile